createdAt,value
2023-04-22T00:03:22.604Z,12.97
2023-04-22T00:08:26.885Z,12.91
2023-04-22T00:13:30.814Z,12.88
2023-04-22T00:18:38.411Z,12.85
2023-04-22T00:23:42.453Z,12.78
2023-04-22T00:28:45.782Z,12.75
2023-04-22T00:33:50.674Z,12.71
2023-04-22T00:38:54.267Z,12.69
2023-04-22T00:43:58.709Z,12.66
2023-04-22T00:49:04.576Z,12.61
2023-04-22T00:54:07.874Z,12.59
2023-04-22T00:59:12.406Z,12.57
2023-04-22T01:04:18.601Z,12.57
2023-04-22T01:09:22.118Z,12.56
2023-04-22T01:14:26.155Z,12.55
2023-04-22T01:19:30.881Z,12.57
2023-04-22T01:24:36.568Z,12.58
2023-04-22T01:29:41.745Z,12.56
2023-04-22T01:34:45.722Z,12.56
2023-04-22T01:39:51.622Z,12.56
2023-04-22T01:44:55.709Z,12.56
2023-04-22T01:49:59.270Z,12.56
2023-04-22T01:55:05.510Z,12.54
2023-04-22T02:00:10.441Z,12.55
2023-04-22T02:05:14.876Z,12.53
2023-04-22T02:10:19.695Z,12.51
2023-04-22T02:15:23.403Z,12.48
2023-04-22T02:20:27.770Z,12.45
2023-04-22T02:25:32.960Z,12.39
2023-04-22T02:30:37.610Z,12.36
2023-04-22T02:35:42.679Z,12.32
2023-04-22T02:40:47.521Z,12.28
2023-04-22T02:45:51.085Z,12.23
2023-04-22T02:50:54.282Z,12.18
2023-04-22T02:56:01.264Z,12.12
2023-04-22T03:01:04.834Z,12.09
2023-04-22T03:06:08.703Z,12.06
2023-04-22T03:11:14.406Z,12.01
2023-04-22T03:16:19.057Z,11.99
2023-04-22T03:21:23.139Z,11.96
2023-04-22T03:26:31.092Z,11.93
2023-04-22T03:31:34.847Z,11.89
2023-04-22T03:36:38.746Z,11.84
2023-04-22T03:41:43.639Z,11.80
2023-04-22T03:46:47.161Z,11.77
2023-04-22T03:51:51.959Z,11.75
2023-04-22T03:56:58.368Z,11.73
2023-04-22T04:02:01.889Z,11.71
2023-04-22T04:07:05.687Z,11.71
2023-04-22T04:12:11.940Z,11.71
2023-04-22T04:17:15.405Z,11.71
2023-04-22T04:22:20.123Z,11.73
2023-04-22T04:27:28.502Z,11.75
2023-04-22T04:32:34.866Z,11.78
2023-04-22T04:37:40.860Z,11.79
2023-04-22T04:42:45.773Z,11.85
2023-04-22T04:47:50.953Z,11.92
2023-04-22T04:52:54.539Z,11.98
2023-04-22T04:57:59.465Z,12.08
2023-04-22T05:03:03.831Z,12.16
2023-04-22T05:08:07.326Z,12.29
2023-04-22T05:13:12.289Z,12.43
2023-04-22T05:18:16.132Z,12.60
2023-04-22T05:23:21.155Z,12.78
2023-04-22T05:28:26.994Z,13.12
2023-04-22T05:33:30.543Z,16.62
2023-04-22T05:38:33.847Z,18.89
2023-04-22T05:43:41.780Z,20.51
2023-04-22T05:48:45.890Z,22.29
2023-04-22T05:53:49.805Z,23.78
2023-04-22T05:58:54.801Z,24.91
2023-04-22T06:04:00.854Z,25.99
2023-04-22T06:09:04.704Z,26.82
2023-04-22T06:14:09.732Z,27.27
2023-04-22T06:19:13.040Z,28.17
2023-04-22T06:24:16.473Z,28.28
2023-04-22T06:29:29.564Z,28.97
2023-04-22T06:34:35.346Z,29.78
2023-04-22T06:39:39.433Z,29.47
2023-04-22T06:44:45.030Z,29.39
2023-04-22T06:49:50.597Z,31.24
2023-04-22T06:54:53.952Z,31.44
2023-04-22T07:00:02.668Z,32.03
2023-04-22T07:05:07.080Z,31.98
2023-04-22T07:10:15.192Z,32.05
2023-04-22T07:15:21.221Z,32.47
2023-04-22T07:20:24.865Z,32.27
2023-04-22T07:25:28.389Z,32.64
2023-04-22T07:30:33.455Z,32.60
2023-04-22T07:35:37.665Z,33.35
2023-04-22T07:40:42.281Z,34.04
2023-04-22T07:45:47.491Z,33.91
2023-04-22T07:50:51.028Z,33.60
2023-04-22T07:55:55.097Z,32.64
2023-04-22T08:01:04.732Z,32.68
2023-04-22T08:06:08.998Z,32.68
2023-04-22T08:11:17.285Z,31.61
2023-04-22T08:16:23.606Z,31.59
2023-04-22T08:21:27.501Z,31.49
2023-04-22T08:26:31.639Z,31.74
2023-04-22T08:31:37.298Z,30.54
2023-04-22T08:36:41.250Z,30.03
2023-04-22T08:41:59.138Z,30.14
2023-04-22T08:47:09.592Z,29.51
2023-04-22T08:52:15.959Z,29.93
2023-04-22T08:57:22.161Z,29.20
2023-04-22T09:02:30.728Z,29.39
2023-04-22T09:07:35.637Z,28.66
2023-04-22T09:12:40.149Z,28.09
2023-04-22T09:18:00.960Z,27.62
2023-04-22T09:23:06.856Z,27.21
2023-04-22T09:28:15.380Z,27.79
2023-04-22T09:33:20.425Z,27.58
2023-04-22T09:38:24.049Z,27.35
2023-04-22T09:43:27.779Z,27.17
2023-04-22T09:48:32.449Z,26.62
2023-04-22T09:53:40.234Z,26.28
2023-04-22T09:58:44.889Z,26.27
2023-04-22T10:03:55.167Z,26.08
2023-04-22T10:09:02.775Z,25.78
2023-04-22T10:14:07.288Z,25.87
2023-04-22T10:19:18.109Z,26.00
2023-04-22T10:24:30.043Z,25.64
2023-04-22T10:29:42.667Z,25.43
2023-04-22T10:34:50.648Z,25.44
2023-04-22T10:40:09.502Z,25.49
2023-04-22T10:45:16.139Z,25.23
2023-04-22T10:50:31.512Z,25.38
2023-04-22T10:55:53.641Z,25.16
2023-04-22T11:01:03.440Z,25.09
2023-04-22T11:06:27.945Z,25.07
2023-04-22T11:11:35.173Z,25.15
2023-04-22T11:16:40.204Z,25.11
2023-04-22T11:21:45.677Z,25.24
2023-04-22T11:26:49.791Z,25.23
2023-04-22T11:31:54.354Z,25.17
2023-04-22T11:36:59.672Z,25.05
2023-04-22T11:42:04.244Z,25.12
2023-04-22T11:47:09.564Z,25.07
2023-04-22T11:52:23.144Z,24.92
2023-04-22T11:57:27.378Z,24.81
2023-04-22T12:02:31.136Z,24.74
2023-04-22T12:07:36.360Z,24.53
2023-04-22T12:12:41.609Z,24.62
2023-04-22T12:17:46.547Z,24.74
2023-04-22T12:22:54.514Z,24.57
2023-04-22T12:27:58.321Z,24.45
2023-04-22T12:33:02.193Z,24.40
2023-04-22T12:38:21.853Z,24.39
2023-04-22T12:43:26.613Z,24.23
2023-04-22T12:48:32.424Z,24.25
2023-04-22T12:53:38.682Z,24.23
2023-04-22T12:58:43.682Z,24.30
2023-04-22T13:03:48.248Z,24.25
2023-04-22T13:08:53.788Z,24.23
2023-04-22T13:13:57.815Z,24.29
2023-04-22T13:19:04.861Z,24.24
2023-04-22T13:24:10.568Z,24.20
2023-04-22T13:29:14.707Z,24.11
2023-04-22T13:34:19.667Z,23.90
2023-04-22T13:39:25.230Z,23.80
2023-04-22T13:44:29.180Z,23.88
2023-04-22T13:49:32.677Z,23.89
2023-04-22T13:54:38.140Z,23.80
2023-04-22T13:59:43.353Z,23.79
2023-04-22T14:04:48.482Z,23.81
2023-04-22T14:09:53.914Z,23.79
2023-04-22T14:14:58.983Z,23.73
2023-04-22T14:20:02.427Z,23.70
2023-04-22T14:25:08.691Z,23.63
2023-04-22T14:30:22.430Z,23.57
2023-04-22T14:35:26.319Z,23.59
2023-04-22T14:40:31.761Z,23.59
2023-04-22T14:45:35.428Z,23.55
2023-04-22T14:50:40.186Z,23.52
2023-04-22T14:55:45.636Z,23.47
2023-04-22T15:00:49.666Z,23.38
2023-04-22T15:05:53.596Z,23.38
2023-04-22T15:11:00.057Z,23.34
2023-04-22T15:16:03.642Z,23.32
2023-04-22T15:21:10.391Z,23.33
2023-04-22T15:26:15.464Z,23.33
2023-04-22T15:31:19.386Z,23.26
2023-04-22T15:36:24.095Z,23.20
2023-04-22T15:41:30.162Z,23.19
2023-04-22T15:46:36.160Z,23.18
2023-04-22T15:51:42.262Z,23.14
2023-04-22T15:56:52.540Z,23.11
2023-04-22T16:01:58.679Z,23.12
2023-04-22T16:07:03.413Z,23.01
2023-04-22T16:12:15.023Z,22.94
2023-04-22T16:17:19.154Z,22.91
2023-04-22T16:22:23.340Z,22.78
2023-04-22T16:27:29.225Z,22.73
2023-04-22T16:32:34.199Z,22.72
2023-04-22T16:37:38.634Z,22.67
2023-04-22T16:42:45.828Z,22.62
2023-04-22T16:47:50.640Z,22.55
2023-04-22T16:52:57.232Z,22.51
2023-04-22T16:58:04.476Z,22.48
2023-04-22T17:03:16.741Z,22.44
2023-04-22T17:08:22.366Z,22.40
2023-04-22T17:13:29.463Z,22.37
2023-04-22T17:18:35.092Z,22.34
2023-04-22T17:23:39.452Z,22.29
2023-04-22T17:28:51.097Z,22.26
2023-04-22T17:33:55.696Z,22.18
2023-04-22T17:38:59.827Z,22.14
2023-04-22T17:44:07.633Z,22.05
2023-04-22T17:49:12.485Z,21.96
2023-04-22T17:54:15.965Z,21.86
2023-04-22T17:59:21.347Z,21.78
2023-04-22T18:04:25.080Z,21.65
2023-04-22T18:09:29.098Z,21.53
2023-04-22T18:14:33.952Z,21.41
2023-04-22T18:19:41.649Z,21.27
2023-04-22T18:24:46.071Z,21.13
2023-04-22T18:29:52.080Z,20.98
2023-04-22T18:34:55.924Z,20.85
2023-04-22T18:40:06.921Z,20.70
2023-04-22T18:45:21.379Z,20.58
2023-04-22T18:50:25.574Z,20.45
2023-04-22T18:55:29.945Z,20.32
2023-04-22T19:00:35.240Z,20.20
2023-04-22T19:05:41.019Z,20.06
2023-04-22T19:10:44.713Z,19.95
2023-04-22T19:15:50.068Z,19.83
2023-04-22T19:20:55.806Z,19.71
2023-04-22T19:26:17.312Z,19.59
2023-04-22T19:31:23.757Z,19.49
2023-04-22T19:36:28.579Z,19.38
2023-04-22T19:41:35.383Z,19.28
2023-04-22T19:46:41.148Z,19.22
2023-04-22T19:51:47.254Z,19.16
2023-04-22T19:56:53.291Z,19.13
2023-04-22T20:01:59.070Z,19.11
2023-04-22T20:07:04.282Z,19.05
2023-04-22T20:12:09.600Z,18.99
2023-04-22T20:17:16.070Z,18.97
2023-04-22T20:22:20.525Z,18.98
2023-04-22T20:27:27.406Z,19.02
2023-04-22T20:32:34.268Z,19.08
2023-04-22T20:37:40.461Z,19.13
2023-04-22T20:42:44.755Z,19.18
2023-04-22T20:47:50.082Z,19.24
2023-04-22T20:52:54.670Z,19.28
2023-04-22T20:57:59.254Z,19.31
2023-04-22T21:03:04.997Z,19.32
2023-04-22T21:08:22.878Z,19.26
2023-04-22T21:13:29.863Z,19.20
2023-04-22T21:18:35.958Z,19.07
2023-04-22T21:23:42.668Z,19.03
2023-04-22T21:28:48.740Z,18.97
2023-04-22T21:33:54.405Z,18.92
2023-04-22T21:38:58.798Z,18.86
2023-04-22T21:44:02.812Z,18.85
2023-04-22T21:49:08.324Z,18.84
2023-04-22T21:54:13.272Z,18.80
2023-04-22T21:59:16.563Z,18.76
2023-04-22T22:04:23.567Z,18.75
2023-04-22T22:09:27.865Z,18.72
2023-04-22T22:14:31.476Z,18.70
2023-04-22T22:19:39.410Z,18.68
2023-04-22T22:24:46.807Z,18.63
2023-04-22T22:29:51.227Z,18.60
2023-04-22T22:35:04.154Z,18.58
2023-04-22T22:40:09.167Z,18.52
2023-04-22T22:45:13.750Z,18.46
2023-04-22T22:50:30.764Z,18.43
2023-04-22T22:55:34.585Z,18.32
2023-04-22T23:00:40.664Z,18.22
2023-04-22T23:05:47.207Z,18.13
2023-04-22T23:10:50.721Z,18.02
2023-04-22T23:15:54.640Z,17.92
2023-04-22T23:21:16.569Z,17.92
2023-04-22T23:26:21.663Z,17.88
2023-04-22T23:31:26.689Z,17.81
2023-04-22T23:36:33.756Z,17.80
2023-04-22T23:41:38.220Z,17.76
2023-04-22T23:46:42.483Z,17.77
2023-04-22T23:51:47.437Z,17.76
2023-04-22T23:56:52.139Z,17.74
